Time;durP1;ratioP1;P1;durP2;ratioP2;P2;SDS_P1;SDS_P2;PMS_P1;PMS_P2;Temp;Humidity;BMP_temperature;BMP_pressure;BME280_temperature;BME280_humidity;BME280_pressure;Samples;Min_cycle;Max_cycle;Signal;HPM_P1;HPM_P2
2022/11/05 00:09:59;;;;;;;;;16.00;12.00;;;;;;;;5105696;27;61795;-76
2022/11/05 00:17:53;;;;;;;;;15.50;12.00;;;;;;;;5085340;27;62089;-76
2022/11/05 00:20:18;;;;;;;;;13.00;9.00;;;;;;;;5084381;28;61820;-76
2022/11/05 00:25:29;;;;;;;;;12.00;10.75;;;;;;;;5085360;27;61751;-76
2022/11/05 00:27:58;;;;;;;;;13.00;9.00;;;;;;;;5085189;28;62078;-76
2022/11/05 00:30:24;;;;;;;;;13.00;8.00;;;;;;;;5084890;27;61808;-76
2022/11/05 00:32:50;;;;;;;;;9.00;8.00;;;;;;;;5084445;27;61837;-75
2022/11/05 00:35:17;;;;;;;;;11.50;8.25;;;;;;;;5084293;28;61705;-76
2022/11/05 00:37:42;;;;;;;;;8.00;8.00;;;;;;;;5084907;27;61713;-76
2022/11/05 00:40:08;;;;;;;;;13.75;9.00;;;;;;;;5085178;27;61909;-76
2022/11/05 00:45:18;;;;;;;;;15.00;11.00;;;;;;;;5105210;27;61799;-76
2022/11/05 00:50:27;;;;;;;;;13.75;9.25;;;;;;;;5104209;27;61921;-75
2022/11/05 00:52:54;;;;;;;;;11.00;9.00;;;;;;;;5086086;27;63708;-76
2022/11/05 00:55:20;;;;;;;;;6.00;6.00;;;;;;;;5105262;27;61788;-76
2022/11/05 00:57:45;;;;;;;;;11.00;9.00;;;;;;;;5104855;27;61925;-76
2022/11/05 01:00:11;;;;;;;;;9.00;8.00;;;;;;;;5105015;27;62121;-76
2022/11/05 01:02:36;;;;;;;;;11.75;9.00;;;;;;;;5104538;27;62536;-76
2022/11/05 01:05:01;;;;;;;;;9.75;9.00;;;;;;;;5085669;27;61790;-76
2022/11/05 01:07:26;;;;;;;;;8.75;8.00;;;;;;;;5105225;27;61711;-76
2022/11/05 01:09:52;;;;;;;;;12.50;10.25;;;;;;;;5104547;27;61739;-76
2022/11/05 01:12:17;;;;;;;;;14.00;9.25;;;;;;;;5103324;27;62724;-77
2022/11/05 01:14:42;;;;;;;;;12.00;8.50;;;;;;;;5086383;27;61895;-76
2022/11/05 01:17:07;;;;;;;;;12.25;8.50;;;;;;;;5086042;27;61763;-75
2022/11/05 01:19:33;;;;;;;;;10.50;7.25;;;;;;;;5103681;27;61920;-76
2022/11/05 01:21:58;;;;;;;;;8.50;5.00;;;;;;;;5104091;27;62795;-76
2022/11/05 01:24:23;;;;;;;;;8.75;7.50;;;;;;;;5104706;27;61772;-76
2022/11/05 01:26:48;;;;;;;;;10.25;8.75;;;;;;;;5104503;27;61708;-76
2022/11/05 01:29:14;;;;;;;;;11.75;7.50;;;;;;;;5104503;27;61752;-75
2022/11/05 01:31:39;;;;;;;;;10.25;8.50;;;;;;;;5104065;27;63234;-76
2022/11/05 01:34:04;;;;;;;;;11.25;9.00;;;;;;;;5085384;27;62497;-76
2022/11/05 01:36:29;;;;;;;;;8.00;8.00;;;;;;;;5104666;27;61737;-76
2022/11/05 01:38:55;;;;;;;;;6.75;6.75;;;;;;;;5104476;27;61744;-75
2022/11/05 01:41:20;;;;;;;;;9.75;9.75;;;;;;;;5085046;27;62957;-76
2022/11/05 01:43:56;;;;;;;;;8.00;7.00;;;;;;;;5104516;27;62454;-76
2022/11/05 01:46:32;;;;;;;;;10.25;9.00;;;;;;;;5086027;27;61865;-76
2022/11/05 01:49:01;;;;;;;;;11.50;8.00;;;;;;;;5103417;27;61861;-76
2022/11/05 01:51:27;;;;;;;;;12.00;8.75;;;;;;;;5085018;27;61856;-76
2022/11/05 01:53:56;;;;;;;;;13.00;9.25;;;;;;;;5104010;27;61859;-77
2022/11/05 01:56:27;;;;;;;;;11.50;8.00;;;;;;;;5085997;27;61834;-75
2022/11/05 01:58:56;;;;;;;;;11.75;6.75;;;;;;;;5104339;27;62098;-76
2022/11/05 02:01:21;;;;;;;;;7.75;6.00;;;;;;;;5084737;27;64901;-76
2022/11/05 02:03:48;;;;;;;;;12.00;9.00;;;;;;;;5103850;27;61946;-76
2022/11/05 02:06:14;;;;;;;;;7.25;7.25;;;;;;;;5085635;27;61882;-75
2022/11/05 02:08:52;;;;;;;;;10.75;7.50;;;;;;;;5104216;27;62026;-76
2022/11/05 02:11:18;;;;;;;;;9.25;7.00;;;;;;;;5103297;27;62081;-76
2022/11/05 02:13:43;;;;;;;;;12.00;7.00;;;;;;;;5104008;27;61753;-76
2022/11/05 02:16:41;;;;;;;;;6.25;4.50;;;;;;;;5096354;27;61752;-76
2022/11/05 02:19:06;;;;;;;;;8.25;7.75;;;;;;;;5048297;28;61951;-76
2022/11/05 02:21:44;;;;;;;;;8.50;7.25;;;;;;;;5082664;28;61762;-76
2022/11/05 02:24:15;;;;;;;;;7.75;6.75;;;;;;;;5083182;28;61776;-76
2022/11/05 02:26:40;;;;;;;;;10.75;7.00;;;;;;;;5083557;28;61852;-76
2022/11/05 02:29:24;;;;;;;;;6.00;6.00;;;;;;;;5083162;27;62026;-76
2022/11/05 02:31:52;;;;;;;;;7.50;7.00;;;;;;;;5082064;28;61764;-76
2022/11/05 02:34:37;;;;;;;;;8.25;7.25;;;;;;;;5082829;27;62009;-76
2022/11/05 02:37:17;;;;;;;;;8.00;6.75;;;;;;;;5083033;27;61930;-76
2022/11/05 02:39:59;;;;;;;;;11.50;7.75;;;;;;;;5083041;28;61875;-76
2022/11/05 02:42:33;;;;;;;;;7.75;6.00;;;;;;;;5069625;27;63186;-76
2022/11/05 02:45:17;;;;;;;;;13.00;6.75;;;;;;;;5102865;27;61803;-76
2022/11/05 02:47:58;;;;;;;;;10.25;6.25;;;;;;;;5103483;27;61728;-76
2022/11/05 02:50:32;;;;;;;;;5.00;5.00;;;;;;;;5102439;27;61870;-76
2022/11/05 02:53:07;;;;;;;;;6.25;6.00;;;;;;;;5102816;27;62853;-76
2022/11/05 02:55:32;;;;;;;;;8.00;4.50;;;;;;;;5103416;27;61981;-76
2022/11/05 02:57:58;;;;;;;;;4.50;3.75;;;;;;;;5102977;27;61830;-75
2022/11/05 03:00:42;;;;;;;;;7.00;4.00;;;;;;;;5102719;27;62153;-76
2022/11/05 03:03:13;;;;;;;;;4.00;4.00;;;;;;;;5102292;27;61890;-76
2022/11/05 03:06:02;;;;;;;;;8.50;7.25;;;;;;;;5084290;27;61783;-76
2022/11/05 03:08:45;;;;;;;;;6.25;1.25;;;;;;;;5019759;28;62026;-76
2022/11/05 03:11:16;;;;;;;;;5.50;5.50;;;;;;;;5019499;28;62152;-76
2022/11/05 03:13:44;;;;;;;;;7.25;5.00;;;;;;;;5019098;28;61911;-76
2022/11/05 03:16:30;;;;;;;;;4.00;4.00;;;;;;;;5019275;28;62014;-76
2022/11/05 03:19:18;;;;;;;;;11.25;7.00;;;;;;;;5008612;28;61907;-76
2022/11/05 03:21:46;;;;;;;;;6.00;4.25;;;;;;;;4994945;28;62069;-76
2022/11/05 03:24:11;;;;;;;;;5.25;4.50;;;;;;;;5002409;28;63216;-76
2022/11/05 03:26:43;;;;;;;;;6.00;6.00;;;;;;;;5019365;28;61926;-76
2022/11/05 03:29:10;;;;;;;;;7.75;6.75;;;;;;;;5018855;28;61882;-76
2022/11/05 03:31:38;;;;;;;;;11.00;6.50;;;;;;;;5003145;28;62049;-76
2022/11/05 03:34:05;;;;;;;;;6.25;4.25;;;;;;;;5019269;28;61874;-76
2022/11/05 03:36:33;;;;;;;;;6.25;6.25;;;;;;;;5023081;28;61812;-76
2022/11/05 03:39:01;;;;;;;;;6.75;6.75;;;;;;;;5022962;28;61931;-76
2022/11/05 03:41:28;;;;;;;;;4.25;4.25;;;;;;;;5022940;28;62093;-76
2022/11/05 03:43:55;;;;;;;;;12.00;6.00;;;;;;;;5021600;28;62039;-76
2022/11/05 03:46:24;;;;;;;;;6.25;4.00;;;;;;;;5075993;27;61912;-76
2022/11/05 03:48:52;;;;;;;;;6.00;6.00;;;;;;;;5105713;27;61752;-76
2022/11/05 03:51:24;;;;;;;;;5.00;3.50;;;;;;;;5087506;27;61780;-76
2022/11/05 03:53:50;;;;;;;;;11.50;6.25;;;;;;;;5105581;27;61856;-76
2022/11/05 03:56:22;;;;;;;;;6.25;6.25;;;;;;;;5105981;27;61680;-76
2022/11/05 03:58:48;;;;;;;;;7.50;3.75;;;;;;;;5083810;27;61779;-76
2022/11/05 04:01:13;;;;;;;;;6.00;3.00;;;;;;;;5085690;27;62109;-76
2022/11/05 04:03:39;;;;;;;;;6.75;3.00;;;;;;;;5084439;28;61712;-76
2022/11/05 04:14:17;;;;;;;;;6.00;3.50;;;;;;;;5084533;28;61850;-76
2022/11/05 04:24:54;;;;;;;;;8.00;3.00;;;;;;;;5084644;27;62491;-76
2022/11/05 04:27:19;;;;;;;;;4.25;3.50;;;;;;;;5083127;27;61790;-76
2022/11/05 04:32:28;;;;;;;;;10.00;5.75;;;;;;;;5085080;28;61784;-76
2022/11/05 04:34:53;;;;;;;;;7.75;5.50;;;;;;;;5082975;28;63657;-76
2022/11/05 04:37:18;;;;;;;;;7.00;4.50;;;;;;;;5083520;27;61809;-75
2022/11/05 04:39:43;;;;;;;;;6.00;6.00;;;;;;;;5083254;27;62021;-76
2022/11/05 04:42:09;;;;;;;;;7.00;6.50;;;;;;;;5084441;28;62093;-76
2022/11/05 04:44:34;;;;;;;;;7.00;5.50;;;;;;;;5084263;27;61934;-76
2022/11/05 04:47:00;;;;;;;;;7.75;4.00;;;;;;;;5083648;28;61772;-76
2022/11/05 04:49:25;;;;;;;;;6.25;4.00;;;;;;;;5083565;27;61842;-76
2022/11/05 04:51:50;;;;;;;;;6.00;3.00;;;;;;;;5084745;28;61702;-76
2022/11/05 04:54:16;;;;;;;;;6.75;4.00;;;;;;;;5082991;28;63548;-76
2022/11/05 04:56:41;;;;;;;;;6.00;3.75;;;;;;;;5082736;27;62193;-76
2022/11/05 04:59:07;;;;;;;;;8.50;3.25;;;;;;;;5101865;27;61904;-76
2022/11/05 05:01:32;;;;;;;;;10.00;7.25;;;;;;;;5105053;27;62111;-76
2022/11/05 05:03:57;;;;;;;;;4.25;3.75;;;;;;;;5104131;27;61918;-76
2022/11/05 05:06:23;;;;;;;;;6.00;4.00;;;;;;;;5086469;27;62358;-76
2022/11/05 05:08:49;;;;;;;;;4.50;4.50;;;;;;;;5105223;27;61611;-76
2022/11/05 05:11:15;;;;;;;;;4.00;4.00;;;;;;;;5086102;27;61744;-76
2022/11/05 05:13:41;;;;;;;;;7.25;4.75;;;;;;;;5085803;27;63816;-76
2022/11/05 05:16:07;;;;;;;;;3.75;3.50;;;;;;;;5104462;27;61787;-75
2022/11/05 05:18:33;;;;;;;;;7.00;7.00;;;;;;;;5104375;27;61956;-76
2022/11/05 05:23:42;;;;;;;;;10.00;7.00;;;;;;;;5104207;27;61740;-75
2022/11/05 05:26:08;;;;;;;;;11.25;6.75;;;;;;;;5104232;27;61770;-76
2022/11/05 05:28:33;;;;;;;;;6.00;6.00;;;;;;;;5104474;27;61872;-76
2022/11/05 05:30:59;;;;;;;;;7.00;5.50;;;;;;;;5104723;27;61896;-76
2022/11/05 05:33:25;;;;;;;;;7.00;4.25;;;;;;;;5104225;27;61837;-76
2022/11/05 05:35:50;;;;;;;;;7.00;7.00;;;;;;;;5104124;27;61862;-76
2022/11/05 05:38:15;;;;;;;;;4.50;4.50;;;;;;;;5104507;27;61770;-76
2022/11/05 05:40:41;;;;;;;;;7.00;6.00;;;;;;;;5103878;27;61796;-76
2022/11/05 05:43:06;;;;;;;;;6.50;6.00;;;;;;;;5103774;27;62015;-76
2022/11/05 05:45:33;;;;;;;;;8.25;5.25;;;;;;;;5085955;27;62065;-76
2022/11/05 05:47:58;;;;;;;;;7.25;6.00;;;;;;;;5104648;27;61920;-76
2022/11/05 05:50:24;;;;;;;;;6.00;4.50;;;;;;;;5103668;27;62020;-76
2022/11/05 05:52:49;;;;;;;;;4.00;4.00;;;;;;;;5103427;27;61873;-76
2022/11/05 05:55:14;;;;;;;;;4.50;3.50;;;;;;;;5103988;27;62016;-76
2022/11/05 05:57:40;;;;;;;;;6.50;3.00;;;;;;;;5085043;27;61922;-76
2022/11/05 06:00:05;;;;;;;;;7.00;4.25;;;;;;;;5104551;27;62095;-76
2022/11/05 06:02:30;;;;;;;;;6.50;4.50;;;;;;;;5084731;27;62873;-76
2022/11/05 06:04:56;;;;;;;;;5.50;4.50;;;;;;;;5103157;27;61799;-76
2022/11/05 06:07:21;;;;;;;;;8.50;6.00;;;;;;;;5104396;27;61764;-76
2022/11/05 06:09:46;;;;;;;;;6.25;3.75;;;;;;;;5103089;27;62014;-76
2022/11/05 06:12:12;;;;;;;;;5.50;3.75;;;;;;;;5102396;27;61881;-76
2022/11/05 06:14:37;;;;;;;;;2.75;2.50;;;;;;;;5103799;27;61672;-76
2022/11/05 06:17:02;;;;;;;;;3.50;2.75;;;;;;;;5076108;27;62026;-76
2022/11/05 06:19:28;;;;;;;;;6.50;4.00;;;;;;;;5082839;27;61784;-76
2022/11/05 06:21:53;;;;;;;;;7.50;6.50;;;;;;;;5064014;28;64409;-76
2022/11/05 06:24:18;;;;;;;;;3.75;3.75;;;;;;;;5064483;28;61874;-76
2022/11/05 06:26:43;;;;;;;;;6.50;4.00;;;;;;;;5064897;28;61723;-76
2022/11/05 06:29:11;;;;;;;;;4.25;4.00;;;;;;;;5083645;27;61748;-76
2022/11/05 06:31:37;;;;;;;;;8.50;3.75;;;;;;;;5064359;28;62814;-76
2022/11/05 06:34:02;;;;;;;;;6.00;5.50;;;;;;;;5064321;28;61817;-76
2022/11/05 06:36:27;;;;;;;;;4.00;2.50;;;;;;;;5101541;27;61737;-75
2022/11/05 06:38:53;;;;;;;;;4.00;4.00;;;;;;;;5084711;27;61843;-76
2022/11/05 06:41:18;;;;;;;;;5.50;4.00;;;;;;;;5084418;27;62904;-75
2022/11/05 06:43:44;;;;;;;;;5.75;3.50;;;;;;;;5102963;27;61899;-76
2022/11/05 06:46:11;;;;;;;;;4.50;4.00;;;;;;;;5103707;27;61779;-76
2022/11/05 06:48:38;;;;;;;;;5.50;4.00;;;;;;;;5103187;27;61745;-76
2022/11/05 06:51:03;;;;;;;;;9.00;6.50;;;;;;;;5083430;27;63689;-76
2022/11/05 06:53:29;;;;;;;;;4.75;3.50;;;;;;;;5084622;27;61979;-76
2022/11/05 06:55:54;;;;;;;;;3.25;3.25;;;;;;;;5084837;27;61818;-76
2022/11/05 06:58:20;;;;;;;;;8.75;5.50;;;;;;;;5103242;27;61836;-76
2022/11/05 07:00:45;;;;;;;;;6.00;5.00;;;;;;;;5083868;27;61971;-76
2022/11/05 07:03:11;;;;;;;;;5.25;5.25;;;;;;;;5103289;27;61918;-76
2022/11/05 07:05:38;;;;;;;;;7.25;3.75;;;;;;;;5102621;27;61911;-75
2022/11/05 07:08:04;;;;;;;;;7.00;6.00;;;;;;;;5084396;27;62164;-76
2022/11/05 07:10:29;;;;;;;;;7.50;4.00;;;;;;;;5082931;27;61714;-76
2022/11/05 07:12:54;;;;;;;;;3.00;3.00;;;;;;;;5102961;27;61850;-76
2022/11/05 07:15:20;;;;;;;;;0.50;0.50;;;;;;;;5084551;27;61917;-76
2022/11/05 07:17:45;;;;;;;;;3.75;2.50;;;;;;;;5087909;27;62232;-76
2022/11/05 07:20:10;;;;;;;;;2.00;2.00;;;;;;;;5080651;28;61802;-76
2022/11/05 07:22:36;;;;;;;;;7.00;4.00;;;;;;;;5082058;28;61736;-76
2022/11/05 07:25:01;;;;;;;;;6.75;5.50;;;;;;;;5082419;28;61904;-77
2022/11/05 07:27:27;;;;;;;;;9.75;4.50;;;;;;;;5079591;27;62145;-77
2022/11/05 07:29:52;;;;;;;;;3.00;3.00;;;;;;;;5083213;27;62745;-78
2022/11/05 07:32:17;;;;;;;;;6.50;4.50;;;;;;;;5083559;27;61960;-76
2022/11/05 07:34:43;;;;;;;;;8.50;7.25;;;;;;;;5101914;27;61791;-76
2022/11/05 07:37:08;;;;;;;;;8.00;8.00;;;;;;;;5101412;27;61814;-76
2022/11/05 07:39:33;;;;;;;;;9.00;7.00;;;;;;;;5101632;27;61678;-76
2022/11/05 07:41:59;;;;;;;;;9.50;8.00;;;;;;;;5082854;27;61779;-77
2022/11/05 07:44:24;;;;;;;;;7.75;5.25;;;;;;;;5101829;27;61709;-78
2022/11/05 07:46:49;;;;;;;;;5.00;4.00;;;;;;;;5102066;27;61622;-76
2022/11/05 07:49:15;;;;;;;;;6.75;3.25;;;;;;;;5099989;27;62751;-77
2022/11/05 07:51:40;;;;;;;;;3.50;2.75;;;;;;;;5083036;27;61813;-76
2022/11/05 07:54:05;;;;;;;;;5.25;2.00;;;;;;;;5101744;27;61650;-76
2022/11/05 07:56:31;;;;;;;;;4.75;4.50;;;;;;;;5101918;27;61675;-77
2022/11/05 07:58:56;;;;;;;;;8.00;6.00;;;;;;;;5100887;27;61981;-77
2022/11/05 08:01:21;;;;;;;;;6.50;3.25;;;;;;;;5083006;27;61878;-77
2022/11/05 08:03:47;;;;;;;;;8.50;4.50;;;;;;;;5082348;27;61844;-77
2022/11/05 08:06:12;;;;;;;;;11.00;8.00;;;;;;;;5101492;27;62452;-76
2022/11/05 08:08:37;;;;;;;;;16.25;10.25;;;;;;;;5101579;27;62826;-77
2022/11/05 08:11:04;;;;;;;;;7.25;4.00;;;;;;;;5083106;27;61847;-77
2022/11/05 08:13:29;;;;;;;;;6.50;3.00;;;;;;;;5102210;27;61816;-76
2022/11/05 08:15:58;;;;;;;;;3.50;2.50;;;;;;;;5083416;27;62163;-77
2022/11/05 08:18:30;;;;;;;;;2.00;2.00;;;;;;;;5068467;28;62731;-77
2022/11/05 08:20:55;;;;;;;;;6.00;2.00;;;;;;;;5091634;27;61993;-77
2022/11/05 08:23:21;;;;;;;;;9.00;9.00;;;;;;;;5104774;27;62033;-77
2022/11/05 08:25:46;;;;;;;;;9.75;7.50;;;;;;;;5085450;27;62018;-76
2022/11/05 08:28:12;;;;;;;;;20.00;14.00;;;;;;;;5083781;27;63643;-78
2022/11/05 08:30:38;;;;;;;;;14.50;10.00;;;;;;;;5085364;27;61860;-85
2022/11/05 08:33:06;;;;;;;;;10.75;9.00;;;;;;;;5084754;27;62387;-78
2022/11/05 08:35:33;;;;;;;;;10.50;8.75;;;;;;;;5103663;27;62071;-78
2022/11/05 08:37:59;;;;;;;;;16.00;12.25;;;;;;;;5085005;27;63647;-79
2022/11/05 08:40:25;;;;;;;;;9.00;6.50;;;;;;;;5104809;27;61771;-81
2022/11/05 08:42:50;;;;;;;;;6.00;4.00;;;;;;;;5103495;27;61904;-81
2022/11/05 08:45:16;;;;;;;;;3.00;3.00;;;;;;;;5085372;27;61862;-79
2022/11/05 08:47:41;;;;;;;;;4.50;2.50;;;;;;;;5103166;27;62101;-79
2022/11/05 08:50:07;;;;;;;;;1.75;1.75;;;;;;;;5104109;27;61963;-81
2022/11/05 08:52:32;;;;;;;;;3.50;3.00;;;;;;;;5087192;27;61757;-81
2022/11/05 08:54:57;;;;;;;;;5.00;3.25;;;;;;;;5086876;27;62022;-78
2022/11/05 08:57:23;;;;;;;;;3.25;2.00;;;;;;;;5095534;27;62054;-78
2022/11/05 08:59:48;;;;;;;;;4.50;3.75;;;;;;;;5099375;27;62271;-78
2022/11/05 09:02:13;;;;;;;;;3.00;2.00;;;;;;;;5104030;27;62044;-78
2022/11/05 09:04:38;;;;;;;;;4.25;3.00;;;;;;;;5104118;27;61859;-78
2022/11/05 09:07:04;;;;;;;;;3.00;3.00;;;;;;;;5085257;27;62060;-78
2022/11/05 09:09:29;;;;;;;;;8.75;4.75;;;;;;;;5085724;27;61930;-78
2022/11/05 09:11:54;;;;;;;;;4.75;3.00;;;;;;;;5086203;27;61970;-78
2022/11/05 09:14:20;;;;;;;;;6.50;4.00;;;;;;;;5104506;27;61873;-78
2022/11/05 09:16:45;;;;;;;;;9.50;7.00;;;;;;;;5085012;27;61908;-78
2022/11/05 09:19:10;;;;;;;;;6.25;5.25;;;;;;;;5102239;27;61969;-78
2022/11/05 09:21:36;;;;;;;;;4.00;4.00;;;;;;;;5083645;27;61898;-78
2022/11/05 09:24:01;;;;;;;;;4.25;4.00;;;;;;;;5102506;27;61882;-78
2022/11/05 09:26:27;;;;;;;;;3.00;3.00;;;;;;;;5102065;27;61815;-78
2022/11/05 09:28:52;;;;;;;;;3.50;3.00;;;;;;;;5085103;27;61905;-80
2022/11/05 09:31:18;;;;;;;;;3.25;2.00;;;;;;;;5103534;27;62005;-81
2022/11/05 09:33:43;;;;;;;;;2.50;2.50;;;;;;;;5103862;27;61876;-81
2022/11/05 09:36:09;;;;;;;;;5.75;3.75;;;;;;;;5082894;27;61969;-80
2022/11/05 09:38:34;;;;;;;;;4.00;1.25;;;;;;;;5101858;27;61822;-80
2022/11/05 09:41:01;;;;;;;;;3.50;3.00;;;;;;;;5084425;27;61983;-80
2022/11/05 09:43:39;;;;;;;;;6.50;4.00;;;;;;;;5102336;27;61867;-80
2022/11/05 09:46:12;;;;;;;;;3.75;3.00;;;;;;;;5082242;27;62025;-80
2022/11/05 09:48:39;;;;;;;;;3.50;2.00;;;;;;;;5081428;27;62077;-81
2022/11/05 09:51:05;;;;;;;;;1.75;1.25;;;;;;;;5102362;27;61892;-80
2022/11/05 09:53:31;;;;;;;;;1.50;1.50;;;;;;;;5082440;27;61835;-81
2022/11/05 09:55:57;;;;;;;;;2.00;1.00;;;;;;;;5081706;27;62853;-80
2022/11/05 09:58:35;;;;;;;;;1.25;1.25;;;;;;;;5106889;27;62052;-81
2022/11/05 10:01:04;;;;;;;;;3.00;1.50;;;;;;;;5097726;27;62096;-81
2022/11/05 10:03:31;;;;;;;;;2.00;0.75;;;;;;;;5081934;27;61743;-81
2022/11/05 10:06:04;;;;;;;;;1.00;1.00;;;;;;;;5082348;27;63407;-83
2022/11/05 10:08:31;;;;;;;;;2.75;1.00;;;;;;;;5100373;27;61597;-81
2022/11/05 10:11:14;;;;;;;;;5.00;2.00;;;;;;;;5098922;27;62160;-81
2022/11/05 10:13:39;;;;;;;;;2.00;2.00;;;;;;;;5079964;27;61917;-80
2022/11/05 10:16:10;;;;;;;;;3.00;2.25;;;;;;;;5103163;27;62805;-81
2022/11/05 10:18:38;;;;;;;;;2.25;1.75;;;;;;;;5084343;27;61838;-80
2022/11/05 10:21:04;;;;;;;;;2.00;1.00;;;;;;;;5083223;27;62075;-80
2022/11/05 10:23:29;;;;;;;;;2.00;0.75;;;;;;;;5103430;27;61851;-81
2022/11/05 10:25:54;;;;;;;;;1.00;1.00;;;;;;;;5084346;27;63763;-80
2022/11/05 10:28:22;;;;;;;;;1.00;1.00;;;;;;;;5085051;27;61972;-80
2022/11/05 10:30:57;;;;;;;;;1.00;1.00;;;;;;;;5084611;27;62171;-80
2022/11/05 10:33:34;;;;;;;;;2.00;2.00;;;;;;;;5104118;27;61799;-80
2022/11/05 10:36:02;;;;;;;;;1.00;1.00;;;;;;;;5102870;27;62637;-80
2022/11/05 10:38:27;;;;;;;;;1.50;1.50;;;;;;;;5103732;27;61748;-80
2022/11/05 10:40:57;;;;;;;;;2.25;2.00;;;;;;;;5103813;27;61938;-80
2022/11/05 10:43:39;;;;;;;;;3.00;2.00;;;;;;;;5084919;27;61866;-80
2022/11/05 10:46:10;;;;;;;;;4.00;2.00;;;;;;;;5064138;28;64825;-80
2022/11/05 10:48:36;;;;;;;;;1.75;1.75;;;;;;;;5064282;28;61899;-80
2022/11/05 10:51:01;;;;;;;;;3.75;2.00;;;;;;;;5064294;28;62049;-80
2022/11/05 10:53:29;;;;;;;;;4.00;3.00;;;;;;;;5083496;27;61946;-80
2022/11/05 10:55:57;;;;;;;;;1.25;1.25;;;;;;;;5082623;28;61848;-80
2022/11/05 10:58:26;;;;;;;;;3.50;2.00;;;;;;;;5082188;28;62187;-80
2022/11/05 11:00:51;;;;;;;;;3.25;3.00;;;;;;;;5064713;28;61832;-80
2022/11/05 11:03:29;;;;;;;;;2.50;1.50;;;;;;;;5065034;27;62149;-80
2022/11/05 11:06:02;;;;;;;;;3.00;1.25;;;;;;;;5063413;28;63122;-80
2022/11/05 11:08:29;;;;;;;;;2.00;2.00;;;;;;;;5064763;28;62050;-80
2022/11/05 11:10:56;;;;;;;;;3.50;1.00;;;;;;;;5064180;28;61789;-80
2022/11/05 11:13:23;;;;;;;;;6.00;3.50;;;;;;;;5064434;28;61919;-80
2022/11/05 11:15:49;;;;;;;;;3.00;1.50;;;;;;;;5082193;28;62000;-80
2022/11/05 11:18:34;;;;;;;;;2.25;2.25;;;;;;;;5082815;28;61803;-80
2022/11/05 11:21:04;;;;;;;;;4.00;2.00;;;;;;;;5082316;28;62197;-80
2022/11/05 11:23:34;;;;;;;;;6.50;2.00;;;;;;;;5083019;28;61813;-80
2022/11/05 11:26:00;;;;;;;;;1.50;1.50;;;;;;;;5082081;27;62647;-80
2022/11/05 11:28:41;;;;;;;;;2.00;2.00;;;;;;;;5082206;28;62150;-80
2022/11/05 11:31:15;;;;;;;;;3.25;3.00;;;;;;;;5064032;28;61745;-80
2022/11/05 11:33:42;;;;;;;;;1.75;1.75;;;;;;;;5082760;27;61682;-80
2022/11/05 11:36:08;;;;;;;;;0.75;0.75;;;;;;;;5063255;28;61980;-80
2022/11/05 11:38:35;;;;;;;;;1.75;1.00;;;;;;;;5064214;28;62105;-80
2022/11/05 11:41:18;;;;;;;;;6.25;4.00;;;;;;;;5082250;28;62025;-80
2022/11/05 11:43:43;;;;;;;;;4.50;4.50;;;;;;;;5063894;27;62128;-80
2022/11/05 11:46:14;;;;;;;;;3.75;3.75;;;;;;;;5092200;27;62911;-80
2022/11/05 11:48:40;;;;;;;;;2.00;2.00;;;;;;;;5102303;27;61658;-80
2022/11/05 11:51:27;;;;;;;;;3.75;3.25;;;;;;;;5102053;27;61864;-80
2022/11/05 11:53:55;;;;;;;;;1.75;1.50;;;;;;;;5084280;27;61722;-80
2022/11/05 11:56:20;;;;;;;;;3.00;2.00;;;;;;;;5103847;27;61732;-80
2022/11/05 11:58:50;;;;;;;;;7.75;4.75;;;;;;;;5087645;27;61774;-80
2022/11/05 12:01:34;;;;;;;;;2.75;1.50;;;;;;;;5087945;27;61857;-80
2022/11/05 12:04:14;;;;;;;;;1.50;1.50;;;;;;;;5107359;27;61758;-80
2022/11/05 12:06:42;;;;;;;;;2.25;2.25;;;;;;;;5087138;27;63581;-81
2022/11/05 12:09:16;;;;;;;;;2.00;2.00;;;;;;;;5106055;27;61744;-80
2022/11/05 12:11:50;;;;;;;;;2.00;2.00;;;;;;;;5086963;27;61876;-81
2022/11/05 12:14:16;;;;;;;;;5.00;2.00;;;;;;;;5088003;27;61938;-80
2022/11/05 12:16:59;;;;;;;;;2.75;1.00;;;;;;;;5105771;27;61896;-81
2022/11/05 12:19:31;;;;;;;;;2.75;2.75;;;;;;;;5086824;27;61912;-80
2022/11/05 12:21:56;;;;;;;;;1.00;1.00;;;;;;;;5105744;27;61745;-80
2022/11/05 12:24:33;;;;;;;;;2.00;2.00;;;;;;;;5087470;27;62041;-80
2022/11/05 12:26:58;;;;;;;;;2.00;1.25;;;;;;;;5086401;27;61940;-80
2022/11/05 12:29:46;;;;;;;;;1.00;1.00;;;;;;;;5087445;27;61943;-80
2022/11/05 12:32:32;;;;;;;;;3.00;2.00;;;;;;;;5094366;27;61889;-80
2022/11/05 12:35:12;;;;;;;;;1.00;1.00;;;;;;;;5105724;27;62065;-81
2022/11/05 12:37:48;;;;;;;;;1.50;1.00;;;;;;;;5105349;27;63093;-80
2022/11/05 12:40:13;;;;;;;;;0.00;0.00;;;;;;;;5086696;27;62041;-80
2022/11/05 12:42:46;;;;;;;;;5.50;2.50;;;;;;;;5087004;27;61877;-81
2022/11/05 12:45:34;;;;;;;;;2.75;1.75;;;;;;;;5105795;27;61747;-81
2022/11/05 12:48:00;;;;;;;;;1.50;0.00;;;;;;;;5075258;27;63652;-81
2022/11/05 12:50:42;;;;;;;;;3.25;2.00;;;;;;;;5104899;27;61841;-81
2022/11/05 12:53:20;;;;;;;;;1.00;1.00;;;;;;;;5087205;27;61955;-81
2022/11/05 12:55:48;;;;;;;;;4.75;2.00;;;;;;;;5086616;27;61782;-81
2022/11/05 12:58:32;;;;;;;;;2.00;1.00;;;;;;;;5086240;27;61773;-81
2022/11/05 13:01:00;;;;;;;;;6.50;2.00;;;;;;;;5086681;27;62064;-81
2022/11/05 13:03:41;;;;;;;;;4.25;2.00;;;;;;;;5105548;27;61895;-81
2022/11/05 13:06:08;;;;;;;;;3.00;1.50;;;;;;;;5086400;27;62097;-81
2022/11/05 13:08:48;;;;;;;;;11.50;6.75;;;;;;;;5084708;27;62100;-81
2022/11/05 13:11:36;;;;;;;;;2.75;2.75;;;;;;;;5086391;27;62049;-81
2022/11/05 13:14:20;;;;;;;;;1.00;1.00;;;;;;;;5086744;27;61802;-81
2022/11/05 13:16:48;;;;;;;;;2.00;2.00;;;;;;;;5105481;27;61846;-81
2022/11/05 13:19:13;;;;;;;;;1.75;1.75;;;;;;;;5085117;27;63126;-80
2022/11/05 13:21:39;;;;;;;;;4.00;1.75;;;;;;;;5104719;27;61793;-80
2022/11/05 13:24:23;;;;;;;;;4.00;2.75;;;;;;;;5086236;27;61702;-81
2022/11/05 13:27:07;;;;;;;;;3.25;2.25;;;;;;;;5105335;27;61904;-81
2022/11/05 13:29:45;;;;;;;;;2.00;2.00;;;;;;;;5104347;27;62637;-80
2022/11/05 13:32:24;;;;;;;;;3.75;2.00;;;;;;;;5104048;27;62084;-81
2022/11/05 13:34:57;;;;;;;;;4.25;4.00;;;;;;;;5086306;27;62216;-81
2022/11/05 13:40:21;;;;;;;;;5.25;3.25;;;;;;;;5103880;27;62204;-81
2022/11/05 13:43:05;;;;;;;;;5.50;4.00;;;;;;;;5085593;27;62065;-81
2022/11/05 13:45:43;;;;;;;;;2.25;2.00;;;;;;;;5086284;27;61850;-81
2022/11/05 13:48:12;;;;;;;;;3.00;3.00;;;;;;;;5086436;27;61816;-81
2022/11/05 13:51:00;;;;;;;;;7.75;6.00;;;;;;;;5084844;27;63472;-81
2022/11/05 13:53:26;;;;;;;;;1.00;1.00;;;;;;;;5104278;27;61952;-81
2022/11/05 13:55:54;;;;;;;;;7.00;7.00;;;;;;;;5085858;27;61831;-81
2022/11/05 13:58:34;;;;;;;;;4.00;3.75;;;;;;;;5085793;27;61817;-81
2022/11/05 14:01:18;;;;;;;;;3.00;3.00;;;;;;;;5103806;27;62100;-81
2022/11/05 14:03:46;;;;;;;;;2.75;2.75;;;;;;;;5104343;27;61902;-81
2022/11/05 14:06:11;;;;;;;;;3.75;2.25;;;;;;;;5085342;27;61875;-81
2022/11/05 14:08:42;;;;;;;;;2.75;2.75;;;;;;;;5104101;27;61888;-81
2022/11/05 14:11:16;;;;;;;;;4.50;3.00;;;;;;;;5103460;27;61840;-81
2022/11/05 14:13:43;;;;;;;;;4.75;2.00;;;;;;;;5085386;27;61819;-81
2022/11/05 14:16:15;;;;;;;;;2.75;2.75;;;;;;;;5085856;27;61816;-81
2022/11/05 14:18:43;;;;;;;;;2.25;2.00;;;;;;;;5103400;27;61705;-80
2022/11/05 14:21:28;;;;;;;;;3.00;2.00;;;;;;;;5083908;27;63337;-81
2022/11/05 14:23:55;;;;;;;;;5.00;3.75;;;;;;;;5103996;27;61864;-81
2022/11/05 14:26:25;;;;;;;;;4.00;4.00;;;;;;;;5104185;27;61828;-81
2022/11/05 14:29:02;;;;;;;;;4.75;3.75;;;;;;;;5085931;27;61800;-81
2022/11/05 14:31:30;;;;;;;;;3.00;3.00;;;;;;;;5102814;27;61895;-80
2022/11/05 14:34:01;;;;;;;;;5.25;3.75;;;;;;;;5103791;27;61964;-81
2022/11/05 14:36:31;;;;;;;;;6.25;5.00;;;;;;;;5084662;27;61946;-81
2022/11/05 14:39:14;;;;;;;;;5.25;2.00;;;;;;;;5085648;27;61927;-81
2022/11/05 14:41:55;;;;;;;;;6.00;3.75;;;;;;;;5084526;27;61915;-81
2022/11/05 14:44:21;;;;;;;;;8.50;4.00;;;;;;;;5076032;27;61772;-81
2022/11/05 14:46:48;;;;;;;;;7.00;3.50;;;;;;;;5103787;27;61617;-81
2022/11/05 14:49:19;;;;;;;;;2.00;2.00;;;;;;;;5084578;27;62037;-81
2022/11/05 14:51:46;;;;;;;;;4.00;3.00;;;;;;;;5083956;27;61869;-81
2022/11/05 14:54:32;;;;;;;;;2.75;2.50;;;;;;;;5103506;27;61867;-81
2022/11/05 14:56:58;;;;;;;;;2.25;2.00;;;;;;;;5084412;27;61948;-81
2022/11/05 14:59:24;;;;;;;;;4.50;2.00;;;;;;;;5103097;27;61918;-81
2022/11/05 15:01:49;;;;;;;;;3.75;1.00;;;;;;;;5084353;27;63307;-81
2022/11/05 15:04:14;;;;;;;;;1.00;1.00;;;;;;;;5103032;27;61977;-81
2022/11/05 15:06:59;;;;;;;;;2.00;2.00;;;;;;;;5084497;27;61862;-80
2022/11/05 15:09:28;;;;;;;;;1.75;1.75;;;;;;;;5103024;27;61779;-81
2022/11/05 15:11:53;;;;;;;;;2.00;2.00;;;;;;;;5102705;27;61838;-80
2022/11/05 15:14:21;;;;;;;;;3.00;2.00;;;;;;;;5084755;27;62030;-80
2022/11/05 15:16:58;;;;;;;;;2.00;2.00;;;;;;;;5084701;27;61763;-81
2022/11/05 15:19:24;;;;;;;;;1.50;1.50;;;;;;;;5102276;27;61887;-80
2022/11/05 15:21:50;;;;;;;;;5.75;1.75;;;;;;;;5089769;27;62250;-80
2022/11/05 15:24:17;;;;;;;;;4.50;2.25;;;;;;;;5064622;28;61820;-81
2022/11/05 15:26:49;;;;;;;;;4.50;3.25;;;;;;;;5083044;28;61888;-81
2022/11/05 15:29:16;;;;;;;;;2.00;0.75;;;;;;;;5064957;28;62252;-81
2022/11/05 15:31:44;;;;;;;;;4.00;2.25;;;;;;;;5062660;28;62776;-81
2022/11/05 15:34:15;;;;;;;;;9.75;8.50;;;;;;;;5063933;28;61829;-81
2022/11/05 15:36:45;;;;;;;;;3.00;3.00;;;;;;;;5082396;28;62064;-81
2022/11/05 15:39:21;;;;;;;;;2.00;0.50;;;;;;;;5082653;28;61951;-81